Time;durP1;ratioP1;P1;durP2;ratioP2;P2;SDS_P1;SDS_P2;PMS_P1;PMS_P2;Temp;Humidity;BMP_temperature;BMP_pressure;BME280_temperature;BME280_humidity;BME280_pressure;Samples;Min_cycle;Max_cycle;Signal;HPM_P1;HPM_P2
2024/02/03 00:00:16;;;;;;;1.80;1.13;;;7.40;99.90;;;;;;5011796;28;20048;-63
2024/02/03 00:02:48;;;;;;;1.90;1.08;;;7.40;99.90;;;;;;5027755;28;20057;-63
2024/02/03 00:05:20;;;;;;;1.58;0.90;;;7.40;99.90;;;;;;5011979;28;20033;-63
2024/02/03 00:07:47;;;;;;;1.83;0.80;;;7.40;99.90;;;;;;5029723;28;20125;-63
2024/02/03 00:10:19;;;;;;;1.98;0.93;;;7.40;99.90;;;;;;4992470;28;20095;-63
2024/02/03 00:12:51;;;;;;;1.30;1.00;;;7.40;99.90;;;;;;5005228;28;20065;-63
2024/02/03 00:15:24;;;;;;;2.25;1.00;;;7.40;99.90;;;;;;5011581;28;20552;-63
2024/02/03 00:17:56;;;;;;;2.70;1.10;;;7.40;99.90;;;;;;4992196;28;20052;-63
2024/02/03 00:20:28;;;;;;;1.73;1.10;;;7.40;99.90;;;;;;5029400;28;20041;-63
2024/02/03 00:22:55;;;;;;;1.90;1.05;;;7.30;99.90;;;;;;5029391;28;20037;-63
2024/02/03 00:25:27;;;;;;;2.08;1.25;;;7.30;99.90;;;;;;5029063;28;20049;-63
2024/02/03 00:28:00;;;;;;;1.30;0.98;;;7.30;99.90;;;;;;5029186;28;20132;-63
2024/02/03 00:30:32;;;;;;;1.48;1.05;;;7.30;99.90;;;;;;5024646;28;20502;-63
2024/02/03 00:32:59;;;;;;;2.08;1.10;;;7.30;99.90;;;;;;5029225;28;20034;-63
2024/02/03 00:35:31;;;;;;;1.63;0.98;;;7.20;99.90;;;;;;5026205;28;20505;-63
2024/02/03 00:38:08;;;;;;;2.38;1.27;;;7.20;99.90;;;;;;5012003;28;20083;-63
2024/02/03 00:40:40;;;;;;;2.88;1.02;;;7.20;99.90;;;;;;5016856;28;20048;-64
2024/02/03 00:43:14;;;;;;;2.38;0.95;;;7.10;99.90;;;;;;5050525;28;20066;-63
2024/02/03 00:45:46;;;;;;;2.38;1.10;;;7.10;99.90;;;;;;5036918;28;20057;-63
2024/02/03 00:48:18;;;;;;;1.92;1.02;;;7.10;99.90;;;;;;5005796;28;20091;-63
2024/02/03 00:50:50;;;;;;;1.40;0.88;;;7.10;99.90;;;;;;5033378;28;20513;-63
2024/02/03 00:53:22;;;;;;;2.42;1.05;;;7.10;99.90;;;;;;4987122;28;20045;-63
2024/02/03 00:55:54;;;;;;;2.35;1.10;;;7.20;99.90;;;;;;5031666;28;20099;-63
2024/02/03 00:58:26;;;;;;;1.67;1.17;;;7.20;99.90;;;;;;5031270;28;20053;-63
2024/02/03 01:00:58;;;;;;;2.70;1.83;;;7.10;99.90;;;;;;5014944;28;20049;-64
2024/02/03 01:03:30;;;;;;;2.92;1.10;;;7.10;99.90;;;;;;5032643;28;20045;-63
2024/02/03 01:06:03;;;;;;;1.83;0.93;;;7.10;99.90;;;;;;4999650;28;20049;-63
2024/02/03 01:08:34;;;;;;;2.28;1.02;;;7.00;99.90;;;;;;5032748;28;20571;-63
2024/02/03 01:11:06;;;;;;;1.38;0.80;;;7.00;99.90;;;;;;5015231;28;20056;-63
2024/02/03 01:13:38;;;;;;;1.38;0.90;;;7.10;99.90;;;;;;5032034;28;20040;-63
2024/02/03 01:16:11;;;;;;;2.28;1.13;;;7.10;99.90;;;;;;5031583;28;20053;-63
2024/02/03 01:18:43;;;;;;;1.88;1.67;;;7.10;99.90;;;;;;5014800;28;20045;-63
2024/02/03 01:21:20;;;;;;;2.05;1.23;;;7.20;99.90;;;;;;5029648;28;20049;-63
2024/02/03 01:23:54;;;;;;;2.22;1.23;;;7.20;99.90;;;;;;4999356;28;20453;-63
2024/02/03 01:26:21;;;;;;;2.42;1.38;;;7.20;99.90;;;;;;5013451;28;20048;-63
2024/02/03 01:28:52;;;;;;;1.02;0.70;;;7.10;99.90;;;;;;5032669;28;20053;-63
2024/02/03 01:31:24;;;;;;;1.10;0.80;;;7.10;99.90;;;;;;5029616;28;20037;-63
2024/02/03 01:33:52;;;;;;;1.38;0.90;;;7.10;99.90;;;;;;5031630;28;20045;-63
2024/02/03 01:36:23;;;;;;;1.50;1.10;;;7.20;99.90;;;;;;5013397;28;20558;-63
2024/02/03 01:38:55;;;;;;;1.88;1.33;;;7.20;99.90;;;;;;4998029;28;20100;-63
2024/02/03 01:41:27;;;;;;;2.03;1.15;;;7.10;99.90;;;;;;5032300;28;20143;-63
2024/02/03 01:43:59;;;;;;;1.63;1.13;;;7.10;99.90;;;;;;5015246;28;20037;-63
2024/02/03 01:46:31;;;;;;;1.45;0.90;;;7.10;99.90;;;;;;5031899;28;20049;-63
2024/02/03 01:49:03;;;;;;;1.33;0.80;;;7.00;99.90;;;;;;5014564;28;20052;-63
2024/02/03 01:51:35;;;;;;;0.98;0.65;;;7.00;99.90;;;;;;5022088;28;20505;-63
2024/02/03 01:54:09;;;;;;;0.80;0.70;;;7.00;99.90;;;;;;5008992;28;20061;-63
2024/02/03 01:56:44;;;;;;;1.92;1.17;;;6.90;99.90;;;;;;5015166;28;20060;-63
2024/02/03 01:59:15;;;;;;;1.98;0.98;;;6.90;99.90;;;;;;5031759;28;20045;-63
2024/02/03 02:01:50;;;;;;;1.08;0.80;;;6.80;99.90;;;;;;5030410;28;20459;-63
2024/02/03 02:04:24;;;;;;;2.00;1.13;;;6.80;99.90;;;;;;5025164;28;20414;-63
2024/02/03 02:07:01;;;;;;;1.38;0.95;;;6.80;99.90;;;;;;5012864;28;20073;-63
2024/02/03 02:09:29;;;;;;;1.33;0.90;;;6.80;99.90;;;;;;5029506;28;20497;-63
2024/02/03 02:12:01;;;;;;;0.98;0.75;;;6.70;99.90;;;;;;5012301;28;20041;-63
2024/02/03 02:14:33;;;;;;;2.03;1.15;;;6.70;99.90;;;;;;5030740;28;20449;-63
2024/02/03 02:17:06;;;;;;;1.55;0.90;;;6.70;99.90;;;;;;5010156;28;20087;-62
2024/02/03 02:19:33;;;;;;;1.83;1.10;;;6.70;99.90;;;;;;5031202;28;20564;-63
2024/02/03 02:22:05;;;;;;;2.45;0.88;;;6.70;99.90;;;;;;5031063;28;20083;-63
2024/02/03 02:24:37;;;;;;;1.90;1.00;;;6.70;99.90;;;;;;5029299;28;20051;-63
2024/02/03 02:27:04;;;;;;;1.67;0.90;;;6.60;99.90;;;;;;5031078;28;20072;-63
2024/02/03 02:29:36;;;;;;;1.92;1.10;;;6.60;99.90;;;;;;5012822;28;20568;-63
2024/02/03 02:32:08;;;;;;;1.48;0.88;;;6.70;99.90;;;;;;5013906;28;20065;-63
2024/02/03 02:34:40;;;;;;;1.90;1.27;;;6.70;99.90;;;;;;5028042;28;20045;-63
2024/02/03 02:37:12;;;;;;;1.38;0.90;;;6.70;99.90;;;;;;5028989;28;20416;-63
2024/02/03 02:39:44;;;;;;;1.60;0.95;;;6.70;99.90;;;;;;5011589;28;20053;-63
2024/02/03 02:42:16;;;;;;;1.35;1.08;;;6.70;99.90;;;;;;5029241;28;20655;-63
2024/02/03 02:44:48;;;;;;;1.02;0.80;;;6.70;99.90;;;;;;5026555;28;20037;-63
2024/02/03 02:47:20;;;;;;;1.45;1.20;;;6.70;99.90;;;;;;5030417;28;20049;-63
2024/02/03 02:49:52;;;;;;;1.55;1.00;;;6.60;99.90;;;;;;5013740;28;20136;-63
2024/02/03 02:52:23;;;;;;;1.80;0.93;;;6.60;99.90;;;;;;5044088;28;20029;-63
2024/02/03 02:54:56;;;;;;;1.65;0.82;;;6.60;99.90;;;;;;5001830;28;20048;-63
2024/02/03 02:57:28;;;;;;;1.25;1.08;;;6.70;99.90;;;;;;5028193;28;20103;-63
2024/02/03 03:00:00;;;;;;;2.03;0.80;;;6.60;99.90;;;;;;5030487;28;20039;-63
2024/02/03 03:02:32;;;;;;;1.65;1.15;;;6.50;99.90;;;;;;5013279;28;20117;-63
2024/02/03 03:05:07;;;;;;;1.60;1.17;;;6.50;99.90;;;;;;5029782;28;20045;-63
2024/02/03 03:07:40;;;;;;;2.10;1.10;;;6.50;99.90;;;;;;5030368;28;20076;-63
2024/02/03 03:10:12;;;;;;;1.27;0.88;;;6.50;99.90;;;;;;5027076;28;20409;-63
2024/02/03 03:12:44;;;;;;;3.42;0.85;;;6.60;99.90;;;;;;4997979;28;20053;-63
2024/02/03 03:15:16;;;;;;;1.40;1.10;;;6.60;99.90;;;;;;5029855;28;20038;-63
2024/02/03 03:17:43;;;;;;;2.00;1.10;;;6.60;99.90;;;;;;5030039;28;20524;-63
2024/02/03 03:20:10;;;;;;;1.88;1.17;;;6.50;99.90;;;;;;5030149;28;20823;-63
2024/02/03 03:22:42;;;;;;;1.75;1.08;;;6.50;99.90;;;;;;5028764;28;20116;-63
2024/02/03 03:25:14;;;;;;;1.63;1.17;;;6.40;99.90;;;;;;5028224;28;20432;-63
2024/02/03 03:27:41;;;;;;;1.98;1.00;;;6.40;99.90;;;;;;5029915;28;20041;-63
2024/02/03 03:30:13;;;;;;;0.95;0.70;;;6.40;99.90;;;;;;5029672;28;20046;-63
2024/02/03 03:32:45;;;;;;;1.83;1.10;;;6.40;99.90;;;;;;5006023;28;20076;-63
2024/02/03 03:35:11;;;;;;;1.05;0.80;;;6.50;99.90;;;;;;5029485;28;20490;-63
2024/02/03 03:37:43;;;;;;;1.90;1.02;;;6.30;99.90;;;;;;5029801;28;20501;-63
2024/02/03 03:40:15;;;;;;;2.25;1.35;;;6.40;99.90;;;;;;5029317;28;20042;-63
2024/02/03 03:42:47;;;;;;;1.55;0.90;;;6.40;99.90;;;;;;5012501;28;20064;-63
2024/02/03 03:45:19;;;;;;;1.77;1.10;;;6.40;99.90;;;;;;5028476;28;20548;-62
2024/02/03 03:47:51;;;;;;;1.83;1.00;;;6.40;99.90;;;;;;5011579;28;20069;-63
2024/02/03 03:50:23;;;;;;;2.00;1.05;;;6.40;99.90;;;;;;5029396;28;20064;-63
2024/02/03 03:52:55;;;;;;;1.73;1.20;;;6.30;99.90;;;;;;5020605;28;20134;-62
2024/02/03 03:55:27;;;;;;;2.47;1.15;;;6.20;99.90;;;;;;5029203;28;20049;-63
2024/02/03 03:57:59;;;;;;;2.63;1.23;;;6.20;99.90;;;;;;5005272;28;20565;-63
2024/02/03 04:00:31;;;;;;;1.65;1.20;;;6.20;99.90;;;;;;5028996;28;20096;-63
2024/02/03 04:03:03;;;;;;;2.40;1.40;;;6.20;99.90;;;;;;5029273;28;20575;-63
2024/02/03 04:05:35;;;;;;;1.70;1.20;;;6.10;99.90;;;;;;5027755;28;20045;-62
2024/02/03 04:08:07;;;;;;;2.20;1.30;;;6.10;99.90;;;;;;5010698;28;20509;-63
2024/02/03 04:10:39;;;;;;;1.58;1.17;;;6.10;99.90;;;;;;5028991;28;20042;-63
2024/02/03 04:13:11;;;;;;;1.98;1.10;;;6.10;99.90;;;;;;5026460;28;20501;-62
2024/02/03 04:15:43;;;;;;;1.73;1.05;;;6.10;99.90;;;;;;5003973;28;20054;-63
2024/02/03 04:18:15;;;;;;;2.35;1.60;;;6.00;99.90;;;;;;5011350;28;20073;-63
2024/02/03 04:20:46;;;;;;;2.08;1.25;;;6.10;99.90;;;;;;5029457;28;20115;-62
2024/02/03 04:23:18;;;;;;;2.58;1.20;;;6.10;99.90;;;;;;5026788;28;20444;-62
2024/02/03 04:25:50;;;;;;;2.80;1.40;;;6.10;99.90;;;;;;5010689;28;20041;-62
2024/02/03 04:28:22;;;;;;;2.42;1.42;;;6.10;99.90;;;;;;5028069;28;20040;-63
2024/02/03 04:30:49;;;;;;;1.95;1.30;;;6.10;99.90;;;;;;5029501;28;20042;-63
2024/02/03 04:33:21;;;;;;;2.10;1.60;;;6.10;99.90;;;;;;5029497;28;20405;-63
2024/02/03 04:35:52;;;;;;;2.28;1.40;;;6.00;99.90;;;;;;5010936;28;20030;-63
2024/02/03 04:38:24;;;;;;;2.60;1.30;;;6.10;99.90;;;;;;5029099;28;20034;-62
2024/02/03 04:40:56;;;;;;;1.83;1.20;;;6.10;99.90;;;;;;5026841;28;20048;-63
2024/02/03 04:43:28;;;;;;;1.92;1.30;;;6.10;99.90;;;;;;5001489;28;20052;-63
2024/02/03 04:46:00;;;;;;;2.00;1.33;;;6.10;99.90;;;;;;5012380;28;20053;-63
2024/02/03 04:48:32;;;;;;;2.35;1.58;;;6.10;99.90;;;;;;5029171;28;20041;-62
2024/02/03 04:51:04;;;;;;;1.98;1.25;;;6.10;99.90;;;;;;5029093;28;20060;-63
2024/02/03 04:53:39;;;;;;;1.93;1.43;;;6.20;99.90;;;;;;5028176;28;20080;-62
2024/02/03 04:56:10;;;;;;;2.88;1.52;;;6.20;99.90;;;;;;5028812;28;20056;-62
2024/02/03 04:58:42;;;;;;;2.45;1.45;;;6.10;99.90;;;;;;5029258;28;20045;-63
2024/02/03 05:01:14;;;;;;;1.73;1.30;;;6.10;99.90;;;;;;5028966;28;20527;-63
2024/02/03 05:03:46;;;;;;;1.77;1.30;;;6.10;99.90;;;;;;5006353;28;20059;-63
2024/02/03 05:06:13;;;;;;;2.25;1.50;;;6.00;99.90;;;;;;5028820;28;20065;-63
2024/02/03 05:08:45;;;;;;;2.75;1.52;;;6.10;99.90;;;;;;5012293;28;20552;-63
2024/02/03 05:11:17;;;;;;;2.08;1.60;;;6.00;99.90;;;;;;5027759;28;20047;-62
2024/02/03 05:13:49;;;;;;;2.30;1.42;;;5.90;99.90;;;;;;5027010;28;20043;-62
2024/02/03 05:16:20;;;;;;;2.38;1.30;;;5.90;99.90;;;;;;5026347;28;20049;-63
2024/02/03 05:18:53;;;;;;;2.13;1.35;;;5.90;99.90;;;;;;5003751;28;20096;-63
2024/02/03 05:21:20;;;;;;;2.50;1.48;;;5.90;99.90;;;;;;5028211;28;20140;-62
2024/02/03 05:23:52;;;;;;;1.90;1.60;;;5.90;99.90;;;;;;5010644;28;20053;-62
2024/02/03 05:26:23;;;;;;;3.40;1.27;;;5.90;99.90;;;;;;5028864;28;20055;-63
2024/02/03 05:28:55;;;;;;;2.70;1.95;;;5.90;99.90;;;;;;5028829;28;20045;-62
2024/02/03 05:31:22;;;;;;;2.03;1.33;;;5.80;99.90;;;;;;5032202;28;20045;-63
2024/02/03 05:33:54;;;;;;;1.92;1.20;;;5.90;99.90;;;;;;5031380;28;20144;-63
2024/02/03 05:36:26;;;;;;;1.92;1.20;;;5.90;99.90;;;;;;5013713;28;20057;-62
2024/02/03 05:38:58;;;;;;;1.85;1.55;;;5.80;99.90;;;;;;5015204;28;20038;-63
2024/02/03 05:41:29;;;;;;;1.75;1.17;;;5.80;99.90;;;;;;5030906;28;20041;-63
2024/02/03 05:44:02;;;;;;;1.60;1.20;;;5.80;99.90;;;;;;5031619;28;20049;-63
2024/02/03 05:46:34;;;;;;;1.60;1.08;;;5.70;99.90;;;;;;5015502;28;20052;-63
2024/02/03 05:49:06;;;;;;;2.20;1.13;;;5.70;99.90;;;;;;5032285;28;20041;-63
2024/02/03 05:51:37;;;;;;;2.78;1.35;;;5.70;99.90;;;;;;5032280;28;20049;-62
2024/02/03 05:54:09;;;;;;;1.88;1.30;;;5.70;99.90;;;;;;5009565;28;20046;-63
2024/02/03 05:56:41;;;;;;;1.83;1.00;;;5.70;99.90;;;;;;4996482;28;20421;-63
2024/02/03 05:59:13;;;;;;;2.08;1.30;;;5.70;99.90;;;;;;4991587;28;20543;-63
2024/02/03 06:01:45;;;;;;;2.22;1.20;;;5.70;99.90;;;;;;5032055;28;20050;-63
2024/02/03 06:04:17;;;;;;;2.08;1.20;;;5.70;99.90;;;;;;5023422;28;20041;-63
2024/02/03 06:06:49;;;;;;;1.70;1.33;;;5.80;99.90;;;;;;5031886;28;20051;-63
2024/02/03 06:09:22;;;;;;;1.80;1.13;;;5.80;99.90;;;;;;5003687;28;20123;-62
2024/02/03 06:11:49;;;;;;;2.42;1.20;;;5.70;99.90;;;;;;5029524;28;20127;-63
2024/02/03 06:14:22;;;;;;;2.40;1.40;;;5.80;99.90;;;;;;5031562;28;20045;-63
2024/02/03 06:16:54;;;;;;;2.00;1.17;;;5.80;99.90;;;;;;5028794;28;20038;-63
2024/02/03 06:19:26;;;;;;;2.88;1.63;;;5.80;99.90;;;;;;5031620;28;20045;-62
2024/02/03 06:21:57;;;;;;;1.42;1.05;;;5.80;99.90;;;;;;5014371;28;20037;-63
2024/02/03 06:24:31;;;;;;;2.05;1.20;;;5.80;99.90;;;;;;5031326;28;20041;-62
2024/02/03 06:27:04;;;;;;;;;;;5.80;99.90;;;;;;5030928;28;20041;-63
2024/02/03 06:29:36;;;;;;;3.25;1.20;;;5.80;99.90;;;;;;5008127;28;20297;-63
2024/02/03 06:32:08;;;;;;;2.15;1.02;;;5.70;99.90;;;;;;5013931;28;20596;-64
2024/02/03 06:34:40;;;;;;;2.35;1.50;;;5.70;99.90;;;;;;5031936;28;20409;-62
2024/02/03 06:37:11;;;;;;;2.42;1.15;;;5.70;99.90;;;;;;5028651;28;20045;-63
2024/02/03 06:39:43;;;;;;;2.47;1.40;;;5.70;99.90;;;;;;5013752;28;20053;-63
2024/02/03 06:42:15;;;;;;;2.20;1.27;;;5.80;99.90;;;;;;5031737;28;20512;-62
2024/02/03 06:44:47;;;;;;;2.50;1.20;;;5.80;99.90;;;;;;5016766;28;20041;-62
2024/02/03 06:47:18;;;;;;;1.88;1.10;;;5.70;99.90;;;;;;5033545;28;20493;-63
2024/02/03 06:49:50;;;;;;;1.58;1.30;;;5.80;99.90;;;;;;5030800;28;20048;-63
2024/02/03 06:52:22;;;;;;;2.15;1.30;;;5.80;99.90;;;;;;5030930;28;20034;-63
2024/02/03 06:54:54;;;;;;;2.15;1.30;;;6.00;99.90;;;;;;5017549;28;20037;-62
2024/02/03 06:57:26;;;;;;;3.10;1.48;;;6.00;99.90;;;;;;5013269;28;20534;-63
2024/02/03 06:59:57;;;;;;;2.38;1.30;;;6.10;99.90;;;;;;5032472;28;20041;-65
2024/02/03 07:02:30;;;;;;;3.25;1.33;;;6.10;99.90;;;;;;5027666;28;20045;-63
2024/02/03 07:05:02;;;;;;;1.60;1.05;;;6.10;99.90;;;;;;5031679;28;20113;-63
2024/02/03 07:07:34;;;;;;;1.42;1.10;;;6.10;99.90;;;;;;5028351;28;20446;-63
2024/02/03 07:10:06;;;;;;;1.40;1.20;;;6.10;99.90;;;;;;5032955;28;20460;-63
2024/02/03 07:12:38;;;;;;;2.40;1.30;;;6.00;99.90;;;;;;5025224;28;20037;-63
2024/02/03 07:15:10;;;;;;;2.58;1.63;;;6.00;99.90;;;;;;5026426;28;20042;-62
2024/02/03 07:17:42;;;;;;;2.83;1.40;;;6.10;99.90;;;;;;5030428;28;20068;-63
2024/02/03 07:20:14;;;;;;;2.35;1.52;;;6.10;99.90;;;;;;5012494;28;20135;-62
2024/02/03 07:22:46;;;;;;;2.05;1.40;;;6.20;99.90;;;;;;5034757;28;20051;-62
2024/02/03 07:25:17;;;;;;;2.47;1.50;;;6.20;99.90;;;;;;5028950;28;20103;-62
2024/02/03 07:27:45;;;;;;;2.97;1.80;;;6.20;99.90;;;;;;5030314;28;20120;-63
2024/02/03 07:30:17;;;;;;;3.00;1.55;;;6.20;99.90;;;;;;5001028;28;20046;-63
2024/02/03 07:32:48;;;;;;;2.33;1.45;;;6.30;99.90;;;;;;5028308;28;20052;-64
2024/02/03 07:35:20;;;;;;;2.47;1.50;;;6.20;99.90;;;;;;4994639;28;20069;-63
2024/02/03 07:37:52;;;;;;;3.47;2.10;;;6.30;99.90;;;;;;5027236;28;20553;-63
2024/02/03 07:40:24;;;;;;;2.60;1.77;;;6.20;99.90;;;;;;5011068;28;20536;-63
2024/02/03 07:42:55;;;;;;;2.70;1.70;;;6.20;99.90;;;;;;4995708;28;20153;-63
2024/02/03 07:45:27;;;;;;;5.05;2.38;;;6.20;99.90;;;;;;5025751;28;20422;-62
2024/02/03 07:47:59;;;;;;;3.25;1.98;;;6.30;99.90;;;;;;5027220;28;20052;-63
2024/02/03 07:50:30;;;;;;;2.67;2.05;;;6.30;99.90;;;;;;5029076;28;20045;-62
2024/02/03 07:53:02;;;;;;;2.47;1.67;;;6.30;99.90;;;;;;5028338;28;20120;-63
2024/02/03 07:55:29;;;;;;;2.88;2.08;;;6.30;99.90;;;;;;5025993;28;20055;-62
2024/02/03 07:58:01;;;;;;;2.60;1.80;;;6.30;99.90;;;;;;5010571;28;20129;-62
2024/02/03 08:00:33;;;;;;;4.03;2.45;;;6.40;99.90;;;;;;5008409;28;20041;-62
2024/02/03 08:03:00;;;;;;;3.10;2.13;;;6.40;99.90;;;;;;5011019;28;20040;-62
2024/02/03 08:05:32;;;;;;;3.78;2.50;;;6.40;99.90;;;;;;5023758;28;20043;-62
2024/02/03 08:08:05;;;;;;;4.35;1.98;;;6.40;99.90;;;;;;5009745;28;20056;-63
2024/02/03 08:10:37;;;;;;;3.70;1.80;;;6.50;99.90;;;;;;5003101;28;20092;-62
2024/02/03 08:13:04;;;;;;;2.60;2.13;;;6.50;99.90;;;;;;5011974;28;20136;-62
2024/02/03 08:15:36;;;;;;;2.50;2.00;;;6.60;99.90;;;;;;5026750;28;20095;-62
2024/02/03 08:18:08;;;;;;;2.97;2.10;;;6.60;99.90;;;;;;5026577;28;20057;-63
2024/02/03 08:20:40;;;;;;;2.78;2.13;;;6.60;99.90;;;;;;5025228;28;20049;-62
2024/02/03 08:23:12;;;;;;;2.65;2.28;;;6.70;99.90;;;;;;5006766;28;20060;-62
2024/02/03 08:25:43;;;;;;;3.40;2.22;;;6.70;99.90;;;;;;5009036;28;20049;-63
2024/02/03 08:28:15;;;;;;;2.83;2.10;;;6.70;99.90;;;;;;5005865;28;20034;-63
2024/02/03 08:30:47;;;;;;;5.15;2.50;;;6.80;99.90;;;;;;5010541;28;20053;-63
2024/02/03 08:33:19;;;;;;;3.10;2.17;;;6.80;99.90;;;;;;5023871;28;20037;-62
2024/02/03 08:35:51;;;;;;;4.65;3.30;;;6.80;99.90;;;;;;5009811;28;20059;-63
2024/02/03 08:38:23;;;;;;;4.35;2.67;;;6.90;99.90;;;;;;5005569;28;20042;-63
2024/02/03 08:40:55;;;;;;;3.78;2.78;;;6.90;99.90;;;;;;5009535;28;20065;-63
2024/02/03 08:43:27;;;;;;;3.90;2.72;;;7.00;99.90;;;;;;5026627;28;20041;-63
2024/02/03 08:45:59;;;;;;;3.97;2.55;;;7.00;99.90;;;;;;5020217;28;20134;-63
2024/02/03 08:48:30;;;;;;;4.78;3.35;;;7.00;99.90;;;;;;5026723;28;20044;-62
2024/02/03 08:51:04;;;;;;;5.05;3.05;;;7.10;99.90;;;;;;5027731;28;20038;-63
2024/02/03 08:53:32;;;;;;;4.15;2.72;;;7.10;99.90;;;;;;5003588;28;20124;-63
2024/02/03 08:56:07;;;;;;;3.00;2.05;;;7.10;99.90;;;;;;5026859;28;20045;-63
2024/02/03 08:58:34;;;;;;;4.15;2.67;;;7.20;99.90;;;;;;5004700;28;20050;-63
2024/02/03 09:01:06;;;;;;;3.47;2.80;;;7.30;99.90;;;;;;5004542;28;20052;-63
2024/02/03 09:03:38;;;;;;;4.70;2.90;;;7.30;99.90;;;;;;5010490;28;20580;-62
2024/02/03 09:06:13;;;;;;;7.18;3.70;;;7.40;99.90;;;;;;5029055;28;20037;-63
2024/02/03 09:08:47;;;;;;;5.22;3.85;;;7.50;99.90;;;;;;5027044;28;20091;-63
2024/02/03 09:11:19;;;;;;;;;;;7.50;99.90;;;;;;5012979;28;20049;-63
2024/02/03 09:13:46;;;;;;;27.08;15.55;;;7.50;99.90;;;;;;5030334;28;19929;-63
2024/02/03 09:16:18;;;;;;;4.97;3.35;;;7.60;99.90;;;;;;5027804;28;20041;-63
2024/02/03 09:18:49;;;;;;;6.63;3.67;;;7.70;99.90;;;;;;5011895;28;20073;-63
2024/02/03 09:21:21;;;;;;;4.45;2.80;;;7.70;99.90;;;;;;5030207;28;20040;-63
2024/02/03 09:23:54;;;;;;;4.30;3.10;;;7.80;99.90;;;;;;5030951;28;20029;-63
2024/02/03 09:26:25;;;;;;;4.90;3.25;;;7.90;99.90;;;;;;5028093;28;20099;-63
2024/02/03 09:28:57;;;;;;;5.97;2.83;;;8.00;99.90;;;;;;5028741;28;20249;-63
2024/02/03 09:31:29;;;;;;;4.32;2.92;;;8.00;99.90;;;;;;5013510;28;20069;-63
2024/02/03 09:33:56;;;;;;;4.65;2.88;;;8.00;99.90;;;;;;5029078;28;20041;-63
2024/02/03 09:36:28;;;;;;;3.65;2.80;;;8.10;99.90;;;;;;5007867;28;20582;-63
2024/02/03 09:39:00;;;;;;;3.60;2.53;;;8.10;99.90;;;;;;5025849;28;20412;-63
2024/02/03 09:41:33;;;;;;;5.20;3.00;;;8.20;99.90;;;;;;5028565;28;20523;-63
2024/02/03 09:44:05;;;;;;;6.50;3.13;;;8.20;99.90;;;;;;5029380;28;20045;-63
2024/02/03 09:46:37;;;;;;;5.85;3.38;;;8.30;99.90;;;;;;5029673;28;20100;-63
2024/02/03 09:49:09;;;;;;;4.20;2.72;;;8.30;99.90;;;;;;5008123;28;20049;-63
2024/02/03 09:51:41;;;;;;;3.63;2.55;;;8.30;99.90;;;;;;5030777;28;20042;-63
2024/02/03 09:54:08;;;;;;;7.80;3.30;;;8.40;99.90;;;;;;5011065;28;20183;-63
2024/02/03 09:56:35;;;;;;;3.95;3.17;;;8.50;99.90;;;;;;5013381;28;20069;-63
2024/02/03 09:59:07;;;;;;;4.30;2.88;;;8.60;99.90;;;;;;5029489;28;20143;-63
2024/02/03 10:01:34;;;;;;;5.53;3.25;;;8.60;99.90;;;;;;5031142;28;20420;-63
2024/02/03 10:04:06;;;;;;;7.03;3.50;;;8.70;99.90;;;;;;5030611;28;20041;-63
2024/02/03 10:06:37;;;;;;;4.43;3.20;;;8.70;99.90;;;;;;5018576;28;20099;-63
2024/02/03 10:09:11;;;;;;;5.95;3.10;;;8.80;99.90;;;;;;5013305;28;20046;-63
2024/02/03 10:11:43;;;;;;;;;;;8.80;99.90;;;;;;5030339;28;20107;-63
2024/02/03 10:14:17;;;;;;;4.78;3.17;;;8.80;99.90;;;;;;5023873;28;19921;-63
2024/02/03 10:16:49;;;;;;;5.70;3.30;;;8.80;99.90;;;;;;5028957;28;20134;-63
2024/02/03 10:19:21;;;;;;;4.80;3.42;;;8.90;99.90;;;;;;5029612;28;20053;-63
2024/02/03 10:21:53;;;;;;;7.03;3.38;;;8.90;99.90;;;;;;5029013;28;20045;-63
2024/02/03 10:24:27;;;;;;;4.03;3.00;;;8.90;99.90;;;;;;5029038;28;20469;-62
2024/02/03 10:27:04;;;;;;;6.57;3.50;;;9.00;99.90;;;;;;5031706;28;20144;-63
2024/02/03 10:29:35;;;;;;;7.78;3.35;;;9.00;99.90;;;;;;5027401;28;20042;-63
2024/02/03 10:32:03;;;;;;;4.45;3.30;;;9.00;99.90;;;;;;5030550;28;20037;-63
2024/02/03 10:34:36;;;;;;;3.90;2.83;;;9.10;99.90;;;;;;5005304;28;20054;-63
2024/02/03 10:37:07;;;;;;;4.20;3.30;;;9.20;99.90;;;;;;5031024;28;20076;-63
2024/02/03 10:39:42;;;;;;;4.45;3.28;;;9.20;99.90;;;;;;5027713;28;20041;-63
2024/02/03 10:42:22;;;;;;;4.72;3.17;;;9.20;99.90;;;;;;5029800;28;20452;-63
2024/02/03 10:45:01;;;;;;;3.83;2.45;;;9.30;99.90;;;;;;5028907;28;20814;-63
2024/02/03 10:47:38;;;;;;;3.25;2.53;;;9.30;99.90;;;;;;5028702;28;20038;-63
2024/02/03 10:50:13;;;;;;;5.00;2.55;;;9.30;99.90;;;;;;5013534;28;20052;-63
2024/02/03 10:52:49;;;;;;;4.82;2.80;;;9.30;99.90;;;;;;5028587;28;20077;-63
2024/02/03 10:55:22;;;;;;;8.80;2.45;;;9.40;99.90;;;;;;5008570;28;20132;-63
2024/02/03 10:57:56;;;;;;;5.40;2.55;;;9.40;99.90;;;;;;5027672;28;20049;-63
2024/02/03 11:00:28;;;;;;;3.58;2.30;;;9.50;99.90;;;;;;5029855;28;20120;-63
2024/02/03 11:02:59;;;;;;;2.58;2.10;;;9.60;99.90;;;;;;5028382;28;20046;-63
2024/02/03 11:05:32;;;;;;;3.42;2.10;;;9.60;99.90;;;;;;5005554;28;20124;-63
2024/02/03 11:08:10;;;;;;;3.97;2.63;;;9.70;99.90;;;;;;5024938;28;20132;-63
2024/02/03 11:10:47;;;;;;;3.45;2.10;;;9.80;99.90;;;;;;5027043;28;20038;-63
2024/02/03 11:13:21;;;;;;;4.53;2.30;;;9.90;99.90;;;;;;5028546;28;20064;-63
2024/02/03 11:16:00;;;;;;;2.35;1.63;;;9.90;99.90;;;;;;5010171;28;20409;-63
2024/02/03 11:18:40;;;;;;;3.80;2.22;;;10.00;99.90;;;;;;5013513;28;20060;-63
2024/02/03 11:21:11;;;;;;;3.88;1.70;;;10.00;99.90;;;;;;5028732;28;20120;-63
2024/02/03 11:23:44;;;;;;;2.90;1.60;;;10.00;99.90;;;;;;5028252;28;20046;-63
2024/02/03 11:26:16;;;;;;;1.77;1.48;;;10.10;99.90;;;;;;5012240;28;20087;-63
2024/02/03 11:28:48;;;;;;;2.65;1.92;;;10.10;99.90;;;;;;5010720;28;20778;-63
2024/02/03 11:31:22;;;;;;;2.28;1.77;;;10.20;99.90;;;;;;5030766;28;20052;-63
2024/02/03 11:33:53;;;;;;;2.90;2.00;;;10.30;99.90;;;;;;4991197;28;20800;-63
2024/02/03 11:36:20;;;;;;;4.35;2.03;;;10.40;99.90;;;;;;5012832;28;20046;-64
2024/02/03 11:38:53;;;;;;;5.90;2.08;;;10.50;99.90;;;;;;5041038;28;20053;-63
2024/02/03 11:41:20;;;;;;;3.08;2.10;;;10.50;99.90;;;;;;5012432;28;20036;-63
2024/02/03 11:43:48;;;;;;;2.30;1.70;;;10.60;99.90;;;;;;5028858;28;20033;-63
2024/02/03 11:46:20;;;;;;;3.47;2.03;;;10.60;99.90;;;;;;5023988;28;20043;-62
2024/02/03 11:48:53;;;;;;;2.63;1.85;;;10.60;99.90;;;;;;5028748;28;20041;-63
2024/02/03 11:51:20;;;;;;;4.25;1.70;;;10.60;99.90;;;;;;5025880;28;20103;-62
2024/02/03 11:53:54;;;;;;;3.15;2.13;;;10.80;99.90;;;;;;5026876;28;20053;-63
2024/02/03 11:56:26;;;;;;;2.92;1.90;;;10.80;99.90;;;;;;5010218;28;20050;-62
2024/02/03 11:58:52;;;;;;;2.72;1.70;;;10.90;99.90;;;;;;5027224;28;20041;-62
2024/02/03 12:01:25;;;;;;;3.35;1.50;;;10.80;99.90;;;;;;5026514;28;20052;-63
2024/02/03 12:03:57;;;;;;;2.35;1.73;;;10.90;99.90;;;;;;5010719;28;21209;-63
2024/02/03 12:06:23;;;;;;;3.75;1.83;;;10.90;99.90;;;;;;5028282;28;20125;-63
2024/02/03 12:08:55;;;;;;;3.78;2.25;;;10.90;99.90;;;;;;5027020;28;20033;-63
2024/02/03 12:11:27;;;;;;;3.13;2.30;;;11.00;99.90;;;;;;5025486;28;20116;-63
2024/02/03 12:13:54;;;;;;;3.00;1.92;;;11.10;99.90;;;;;;5027991;28;20124;-63
2024/02/03 12:16:27;;;;;;;3.42;2.10;;;11.10;99.90;;;;;;5026658;28;20037;-63
2024/02/03 12:18:59;;;;;;;2.15;1.60;;;11.30;99.90;;;;;;5026874;28;20103;-63
2024/02/03 12:21:31;;;;;;;3.30;2.25;;;11.30;99.90;;;;;;5024327;28;20164;-62
2024/02/03 12:24:05;;;;;;;3.95;2.50;;;11.40;99.90;;;;;;5026785;28;20049;-62
2024/02/03 12:26:37;;;;;;;3.70;2.70;;;11.40;99.90;;;;;;5027146;28;20046;-63
2024/02/03 12:29:04;;;;;;;2.80;1.90;;;11.40;99.90;;;;;;5028961;28;20037;-62
2024/02/03 12:31:36;;;;;;;3.58;1.88;;;11.40;99.90;;;;;;5027106;28;20049;-62
2024/02/03 12:34:03;;;;;;;3.60;1.90;;;11.50;99.90;;;;;;5029746;28;20111;-63
2024/02/03 12:36:30;;;;;;;3.55;2.13;;;11.60;99.90;;;;;;5027860;28;20207;-63
2024/02/03 12:39:02;;;;;;;5.68;2.10;;;11.70;99.90;;;;;;5027393;28;20045;-63
2024/02/03 12:41:29;;;;;;;4.75;2.10;;;11.70;99.90;;;;;;5029414;28;20490;-63
2024/02/03 12:44:01;;;;;;;3.03;2.10;;;11.70;99.90;;;;;;5028215;28;20045;-63
2024/02/03 12:46:29;;;;;;;3.15;2.20;;;11.70;99.90;;;;;;5028816;28;20095;-63
2024/02/03 12:49:01;;;;;;;2.90;1.98;;;11.80;99.90;;;;;;5028527;28;20053;-63
2024/02/03 12:51:33;;;;;;;2.78;2.05;;;11.80;99.90;;;;;;5029345;28;20091;-63
2024/02/03 12:54:05;;;;;;;2.63;2.08;;;11.90;99.90;;;;;;5025245;28;20037;-63
2024/02/03 12:56:38;;;;;;;3.55;2.10;;;12.00;99.90;;;;;;5010616;28;20042;-63
2024/02/03 12:59:10;;;;;;;2.67;1.92;;;12.00;99.90;;;;;;5027934;28;20111;-63
2024/02/03 13:01:42;;;;;;;2.70;2.10;;;12.10;99.90;;;;;;5027779;28;20131;-63
2024/02/03 13:04:13;;;;;;;2.67;2.30;;;12.00;99.90;;;;;;5012889;28;20128;-63
2024/02/03 13:06:45;;;;;;;3.30;2.22;;;12.00;99.90;;;;;;5029141;28;20030;-63
2024/02/03 13:09:17;;;;;;;6.45;2.50;;;12.00;99.90;;;;;;5029141;28;20033;-63
2024/02/03 13:11:44;;;;;;;3.80;2.42;;;12.10;99.90;;;;;;5027817;28;20037;-63
2024/02/03 13:14:11;;;;;;;3.67;2.40;;;12.20;99.90;;;;;;5027935;28;20128;-63
2024/02/03 13:16:43;;;;;;;3.40;2.08;;;12.10;99.90;;;;;;5027938;28;20399;-63